Time;durP1;ratioP1;P1;durP2;ratioP2;P2;SDS_P1;SDS_P2;PMS_P1;PMS_P2;Temp;Humidity;BMP_temperature;BMP_pressure;BME280_temperature;BME280_humidity;BME280_pressure;Samples;Min_cycle;Max_cycle;Signal;HPM_P1;HPM_P2
2023/05/08 00:02:10;;;;;;;2.35;1.10;;;;;;;;;;4983976;28;20114;-74
2023/05/08 00:04:36;;;;;;;1.58;0.80;;;;;;;;;;4972809;28;20215;-74
2023/05/08 00:07:02;;;;;;;1.50;0.90;;;;;;;;;;4986025;28;20068;-74
2023/05/08 00:09:28;;;;;;;1.00;0.80;;;;;;;;;;4987563;28;20030;-74
2023/05/08 00:11:54;;;;;;;0.88;0.80;;;;;;;;;;4988261;28;20014;-75
2023/05/08 00:14:20;;;;;;;2.35;1.33;;;;;;;;;;4988848;28;20697;-75
2023/05/08 00:16:46;;;;;;;0.70;0.70;;;;;;;;;;4987651;28;20457;-75
2023/05/08 00:19:12;;;;;;;1.15;0.90;;;;;;;;;;4976066;28;20029;-75
2023/05/08 00:21:38;;;;;;;1.02;0.90;;;;;;;;;;4990282;28;20039;-75
2023/05/08 00:24:04;;;;;;;1.55;1.15;;;;;;;;;;4985780;28;20030;-75
2023/05/08 00:26:30;;;;;;;0.95;0.70;;;;;;;;;;4984975;28;20026;-75
2023/05/08 00:28:56;;;;;;;0.68;0.68;;;;;;;;;;4989472;28;20023;-75
2023/05/08 00:31:22;;;;;;;0.60;0.60;;;;;;;;;;4971129;28;20786;-76
2023/05/08 00:33:48;;;;;;;0.77;0.77;;;;;;;;;;4987040;28;20084;-76
2023/05/08 00:36:14;;;;;;;0.80;0.80;;;;;;;;;;4975166;28;20038;-75
2023/05/08 00:38:41;;;;;;;2.53;1.20;;;;;;;;;;4979756;28;20030;-75
2023/05/08 00:41:07;;;;;;;0.70;0.70;;;;;;;;;;4971559;28;20624;-75
2023/05/08 00:43:34;;;;;;;1.95;1.20;;;;;;;;;;4984746;28;20478;-76
2023/05/08 00:46:00;;;;;;;1.25;0.88;;;;;;;;;;4985989;28;20030;-75
2023/05/08 00:48:30;;;;;;;1.95;1.10;;;;;;;;;;4986818;28;20048;-75
2023/05/08 00:50:56;;;;;;;1.20;1.10;;;;;;;;;;4983285;28;20130;-75
2023/05/08 00:53:22;;;;;;;0.95;0.70;;;;;;;;;;4988010;28;20030;-75
2023/05/08 00:55:50;;;;;;;1.10;1.00;;;;;;;;;;4988733;28;20378;-75
2023/05/08 00:58:16;;;;;;;1.40;0.90;;;;;;;;;;4985282;28;20405;-74
2023/05/08 01:00:44;;;;;;;1.08;0.90;;;;;;;;;;4983962;28;20033;-75
2023/05/08 01:03:10;;;;;;;0.82;0.82;;;;;;;;;;4978559;28;20034;-75
2023/05/08 01:05:36;;;;;;;0.85;0.85;;;;;;;;;;4977692;28;20054;-77
2023/05/08 01:08:02;;;;;;;1.73;1.00;;;;;;;;;;4988128;28;20022;-75
2023/05/08 01:10:34;;;;;;;1.05;0.95;;;;;;;;;;4985793;28;20022;-75
2023/05/08 01:13:19;;;;;;;1.33;1.00;;;;;;;;;;4982311;28;20030;-75
2023/05/08 01:15:51;;;;;;;2.50;1.08;;;;;;;;;;4979497;28;20535;-76
2023/05/08 01:18:28;;;;;;;1.60;0.88;;;;;;;;;;4978795;28;20034;-75
2023/05/08 01:21:03;;;;;;;1.23;0.93;;;;;;;;;;4987412;28;20065;-75
2023/05/08 01:23:53;;;;;;;1.05;0.95;;;;;;;;;;4978037;28;20643;-75
2023/05/08 01:26:26;;;;;;;1.85;1.25;;;;;;;;;;4987454;28;20034;-75
2023/05/08 01:29:10;;;;;;;1.23;0.95;;;;;;;;;;4984163;28;20061;-76
2023/05/08 01:31:55;;;;;;;0.88;0.77;;;;;;;;;;4987718;28;20040;-74
2023/05/08 01:34:23;;;;;;;1.00;0.95;;;;;;;;;;4987532;28;20885;-75
2023/05/08 01:36:49;;;;;;;0.95;0.82;;;;;;;;;;4988167;28;20129;-76
2023/05/08 01:39:20;;;;;;;1.67;1.10;;;;;;;;;;4987275;28;20045;-75
2023/05/08 01:42:06;;;;;;;0.95;0.80;;;;;;;;;;4987074;28;20034;-75
2023/05/08 01:44:35;;;;;;;1.13;1.00;;;;;;;;;;4943360;28;20034;-75
2023/05/08 01:47:05;;;;;;;1.48;1.00;;;;;;;;;;4986122;28;20026;-75
2023/05/08 01:49:34;;;;;;;0.70;0.70;;;;;;;;;;4982569;28;20031;-75
2023/05/08 01:52:02;;;;;;;1.13;1.02;;;;;;;;;;4980598;28;20049;-75
2023/05/08 01:54:33;;;;;;;0.85;0.85;;;;;;;;;;4983734;28;20018;-75
2023/05/08 01:57:01;;;;;;;1.00;0.90;;;;;;;;;;4979842;28;20052;-74
2023/05/08 01:59:28;;;;;;;2.20;1.17;;;;;;;;;;4984157;28;20807;-75
2023/05/08 02:01:55;;;;;;;1.55;1.00;;;;;;;;;;4981152;28;20125;-75
2023/05/08 02:04:22;;;;;;;1.20;0.98;;;;;;;;;;4977152;28;20054;-75
2023/05/08 02:06:49;;;;;;;1.17;0.90;;;;;;;;;;4973584;28;20501;-75
2023/05/08 02:09:16;;;;;;;0.85;0.80;;;;;;;;;;4988164;28;20052;-76
2023/05/08 02:11:43;;;;;;;0.90;0.88;;;;;;;;;;4985799;28;20030;-75
2023/05/08 02:14:11;;;;;;;2.47;1.10;;;;;;;;;;4981118;28;20088;-75
2023/05/08 02:16:37;;;;;;;4.15;0.98;;;;;;;;;;4986228;28;20099;-76
2023/05/08 02:19:04;;;;;;;2.58;1.52;;;;;;;;;;4984225;28;20396;-76
2023/05/08 02:21:31;;;;;;;2.05;0.82;;;;;;;;;;4985486;28;20477;-75
2023/05/08 02:23:57;;;;;;;1.35;0.90;;;;;;;;;;4985811;28;20053;-75
2023/05/08 02:26:23;;;;;;;0.60;0.60;;;;;;;;;;4985824;28;20041;-75
2023/05/08 02:28:50;;;;;;;1.23;1.02;;;;;;;;;;4986387;28;20034;-75
2023/05/08 02:31:16;;;;;;;1.23;1.00;;;;;;;;;;4984060;28;20084;-75
2023/05/08 02:33:43;;;;;;;1.92;0.95;;;;;;;;;;4986960;28;20026;-75
2023/05/08 02:36:10;;;;;;;1.38;1.00;;;;;;;;;;4982643;28;20026;-75
2023/05/08 02:38:38;;;;;;;1.75;1.02;;;;;;;;;;4986823;28;20085;-75
2023/05/08 02:41:05;;;;;;;1.83;1.20;;;;;;;;;;4985552;28;20022;-75
2023/05/08 02:43:34;;;;;;;1.27;1.00;;;;;;;;;;4986310;28;20072;-75
2023/05/08 02:46:00;;;;;;;1.00;0.90;;;;;;;;;;4987098;28;20034;-75
2023/05/08 02:48:45;;;;;;;0.77;0.77;;;;;;;;;;4984709;28;20037;-75
2023/05/08 02:51:20;;;;;;;1.73;1.00;;;;;;;;;;4985099;28;20418;-76
2023/05/08 02:53:49;;;;;;;1.77;0.88;;;;;;;;;;4983433;28;20034;-75
2023/05/08 02:56:25;;;;;;;7.38;1.10;;;;;;;;;;4986068;28;20034;-75
2023/05/08 02:59:00;;;;;;;1.15;0.82;;;;;;;;;;4985901;28;20022;-75
2023/05/08 03:01:28;;;;;;;2.70;0.95;;;;;;;;;;4983113;28;20267;-75
2023/05/08 03:04:00;;;;;;;1.17;0.90;;;;;;;;;;4983641;28;20056;-75
2023/05/08 03:06:27;;;;;;;2.15;1.15;;;;;;;;;;4984627;28;20042;-76
2023/05/08 03:08:56;;;;;;;1.00;0.90;;;;;;;;;;4978633;28;20487;-75
2023/05/08 03:11:24;;;;;;;0.80;0.70;;;;;;;;;;4987045;28;20034;-75
2023/05/08 03:13:50;;;;;;;0.95;0.90;;;;;;;;;;4981970;28;20548;-74
2023/05/08 03:16:21;;;;;;;1.75;1.10;;;;;;;;;;4985392;28;20049;-75
2023/05/08 03:18:59;;;;;;;1.92;1.05;;;;;;;;;;4979056;28;20465;-74
2023/05/08 03:21:27;;;;;;;1.15;0.80;;;;;;;;;;4984545;28;20031;-75
2023/05/08 03:23:53;;;;;;;0.90;0.85;;;;;;;;;;4986254;28;20038;-74
2023/05/08 03:26:20;;;;;;;1.13;1.02;;;;;;;;;;4985277;28;20030;-75
2023/05/08 03:28:50;;;;;;;3.33;1.25;;;;;;;;;;4982715;28;20469;-75
2023/05/08 03:31:21;;;;;;;0.90;0.80;;;;;;;;;;4980470;28;20593;-76
2023/05/08 03:33:47;;;;;;;1.10;0.83;;;;;;;;;;4984825;28;20727;-78
2023/05/08 03:36:14;;;;;;;1.27;0.93;;;;;;;;;;4987196;28;20599;-76
2023/05/08 03:38:41;;;;;;;1.05;0.90;;;;;;;;;;4982766;28;20048;-76
2023/05/08 03:41:07;;;;;;;1.58;1.10;;;;;;;;;;4981749;28;20052;-76
2023/05/08 03:43:33;;;;;;;1.13;0.90;;;;;;;;;;4982564;28;20453;-76
2023/05/08 03:46:00;;;;;;;1.65;1.10;;;;;;;;;;4984504;28;20501;-76
2023/05/08 03:48:27;;;;;;;1.83;0.98;;;;;;;;;;4986889;28;20030;-75
2023/05/08 03:50:53;;;;;;;1.33;0.90;;;;;;;;;;4988305;28;20027;-76
2023/05/08 03:53:19;;;;;;;1.35;1.17;;;;;;;;;;4985420;28;20114;-76
2023/05/08 03:55:45;;;;;;;1.90;1.00;;;;;;;;;;4990117;28;20089;-75
2023/05/08 03:58:17;;;;;;;1.05;0.95;;;;;;;;;;4989123;28;20457;-75
2023/05/08 04:00:56;;;;;;;1.02;0.90;;;;;;;;;;4988278;28;20034;-76
2023/05/08 04:03:24;;;;;;;1.63;1.10;;;;;;;;;;4983312;28;20030;-76
2023/05/08 04:06:10;;;;;;;1.63;1.00;;;;;;;;;;4987800;28;20046;-76
2023/05/08 04:08:42;;;;;;;1.20;1.10;;;;;;;;;;4985543;28;20131;-76
2023/05/08 04:11:08;;;;;;;1.15;0.82;;;;;;;;;;4989228;28;20529;-76
2023/05/08 04:13:37;;;;;;;1.60;1.10;;;;;;;;;;4987783;28;20030;-76
2023/05/08 04:16:09;;;;;;;1.20;1.10;;;;;;;;;;4986057;28;20042;-76
2023/05/08 04:18:37;;;;;;;1.60;0.93;;;;;;;;;;4982774;28;20130;-75
2023/05/08 04:21:07;;;;;;;2.90;1.70;;;;;;;;;;4986799;28;20551;-76
2023/05/08 04:23:38;;;;;;;1.08;1.02;;;;;;;;;;4988255;28;20033;-76
2023/05/08 04:26:05;;;;;;;0.80;0.80;;;;;;;;;;4985641;28;20076;-76
2023/05/08 04:28:30;;;;;;;2.22;1.00;;;;;;;;;;4982140;28;20474;-76
2023/05/08 04:30:57;;;;;;;1.50;1.17;;;;;;;;;;4975402;28;20127;-76
2023/05/08 04:33:23;;;;;;;1.15;1.00;;;;;;;;;;4985190;28;20015;-76
2023/05/08 04:35:49;;;;;;;1.95;1.25;;;;;;;;;;4979449;28;20411;-76
2023/05/08 04:38:15;;;;;;;1.15;1.02;;;;;;;;;;4986958;28;20022;-76
2023/05/08 04:40:41;;;;;;;5.85;1.00;;;;;;;;;;4982022;28;20089;-76
2023/05/08 04:43:07;;;;;;;0.98;0.90;;;;;;;;;;4986598;28;20045;-76
2023/05/08 04:45:32;;;;;;;0.90;0.80;;;;;;;;;;4982920;28;20034;-76
2023/05/08 04:47:59;;;;;;;1.60;1.10;;;;;;;;;;4987890;28;20097;-76
2023/05/08 04:50:25;;;;;;;1.23;0.85;;;;;;;;;;4984180;28;20484;-76
2023/05/08 04:52:51;;;;;;;2.22;1.10;;;;;;;;;;4983301;28;20034;-76
2023/05/08 04:55:17;;;;;;;1.35;1.10;;;;;;;;;;4973776;28;20019;-75
2023/05/08 04:57:43;;;;;;;1.70;1.20;;;;;;;;;;4981275;28;20785;-76
2023/05/08 05:00:09;;;;;;;1.52;1.02;;;;;;;;;;4984215;28;20105;-75
2023/05/08 05:02:35;;;;;;;1.50;0.95;;;;;;;;;;4983703;28;20054;-75
2023/05/08 05:05:01;;;;;;;1.00;0.77;;;;;;;;;;4984572;28;20121;-75
2023/05/08 05:07:27;;;;;;;1.10;1.00;;;;;;;;;;4981126;28;20030;-76
2023/05/08 05:09:53;;;;;;;1.27;0.90;;;;;;;;;;4991613;28;20033;-76
2023/05/08 05:12:19;;;;;;;0.98;0.77;;;;;;;;;;4987254;28;20918;-75
2023/05/08 05:14:45;;;;;;;1.10;1.00;;;;;;;;;;4985553;28;20034;-76
2023/05/08 05:17:11;;;;;;;3.58;0.95;;;;;;;;;;4984185;28;20026;-76
2023/05/08 05:19:37;;;;;;;1.20;0.65;;;;;;;;;;4986804;28;20038;-76
2023/05/08 05:22:05;;;;;;;1.95;1.08;;;;;;;;;;4989633;28;20117;-75
2023/05/08 05:24:31;;;;;;;0.77;0.77;;;;;;;;;;4981582;28;20041;-76
2023/05/08 05:26:57;;;;;;;1.30;1.13;;;;;;;;;;4986474;28;20505;-75
2023/05/08 05:29:23;;;;;;;1.42;0.95;;;;;;;;;;4984521;28;20041;-75
2023/05/08 05:31:49;;;;;;;1.38;1.20;;;;;;;;;;4990063;28;20018;-75
2023/05/08 05:34:15;;;;;;;0.70;0.70;;;;;;;;;;4981815;28;20085;-76
2023/05/08 05:36:41;;;;;;;1.05;0.93;;;;;;;;;;4975039;28;20034;-75
2023/05/08 05:39:07;;;;;;;1.17;0.82;;;;;;;;;;4977327;28;20030;-75
2023/05/08 05:41:33;;;;;;;2.05;1.25;;;;;;;;;;4976790;28;20027;-76
2023/05/08 05:43:59;;;;;;;1.30;0.98;;;;;;;;;;4982438;28;20381;-76
2023/05/08 05:46:30;;;;;;;2.03;0.93;;;;;;;;;;4988655;28;20061;-75
2023/05/08 05:48:55;;;;;;;1.80;1.10;;;;;;;;;;4972065;28;20058;-76
2023/05/08 05:51:21;;;;;;;1.52;0.73;;;;;;;;;;4980733;28;20142;-76
2023/05/08 05:53:47;;;;;;;0.95;0.82;;;;;;;;;;4982324;28;20090;-75
2023/05/08 05:56:13;;;;;;;0.90;0.82;;;;;;;;;;4980612;28;20081;-75
2023/05/08 05:58:43;;;;;;;2.58;1.17;;;;;;;;;;4981994;28;20038;-75
2023/05/08 06:01:09;;;;;;;2.13;1.20;;;;;;;;;;4980550;28;20030;-76
2023/05/08 06:03:35;;;;;;;1.27;1.00;;;;;;;;;;4984210;28;20041;-75
2023/05/08 06:06:01;;;;;;;3.47;1.30;;;;;;;;;;4988748;28;20081;-75
2023/05/08 06:08:27;;;;;;;0.88;0.75;;;;;;;;;;4988341;28;20019;-75
2023/05/08 06:10:53;;;;;;;1.83;1.10;;;;;;;;;;4989392;28;20038;-75
2023/05/08 06:13:19;;;;;;;1.48;1.30;;;;;;;;;;4982971;28;20033;-77
2023/05/08 06:15:45;;;;;;;1.55;0.93;;;;;;;;;;4985304;28;20387;-76
2023/05/08 06:18:11;;;;;;;1.77;1.17;;;;;;;;;;4984013;28;20500;-76
2023/05/08 06:20:38;;;;;;;0.93;0.90;;;;;;;;;;4988079;28;20193;-76
2023/05/08 06:23:04;;;;;;;0.95;0.90;;;;;;;;;;4970663;28;20042;-76
2023/05/08 06:25:30;;;;;;;0.70;0.70;;;;;;;;;;4981317;28;20108;-76
2023/05/08 06:27:56;;;;;;;1.50;1.20;;;;;;;;;;4984307;28;20102;-76
2023/05/08 06:30:22;;;;;;;3.83;1.00;;;;;;;;;;4975923;28;20481;-76
2023/05/08 06:32:48;;;;;;;1.83;1.30;;;;;;;;;;4982519;28;20060;-76
2023/05/08 06:35:18;;;;;;;2.08;0.90;;;;;;;;;;4978934;28;20029;-79
2023/05/08 06:37:44;;;;;;;1.00;0.82;;;;;;;;;;4983205;28;20041;-75
2023/05/08 06:40:11;;;;;;;0.77;0.70;;;;;;;;;;4986448;28;20029;-77
2023/05/08 06:42:37;;;;;;;1.10;1.00;;;;;;;;;;4984273;28;20117;-77
2023/05/08 06:45:03;;;;;;;1.02;0.88;;;;;;;;;;4985246;28;20113;-77
2023/05/08 06:47:29;;;;;;;2.55;1.00;;;;;;;;;;4985411;28;20034;-86
2023/05/08 06:49:55;;;;;;;1.02;0.75;;;;;;;;;;4980575;28;20420;-82
2023/05/08 06:52:23;;;;;;;3.33;1.08;;;;;;;;;;4980701;28;20110;-82
2023/05/08 06:54:49;;;;;;;0.90;0.80;;;;;;;;;;4985519;28;20141;-81
2023/05/08 06:57:15;;;;;;;1.40;0.88;;;;;;;;;;4982398;28;20096;-81
2023/05/08 06:59:41;;;;;;;1.05;0.93;;;;;;;;;;4982468;28;20034;-80
2023/05/08 07:02:08;;;;;;;1.27;1.00;;;;;;;;;;4961354;28;20054;-80
2023/05/08 07:04:34;;;;;;;0.95;0.90;;;;;;;;;;4981825;28;20038;-79
2023/05/08 07:07:00;;;;;;;0.85;0.85;;;;;;;;;;4984145;28;20026;-80
2023/05/08 07:09:26;;;;;;;1.27;0.95;;;;;;;;;;4986982;28;20022;-79
2023/05/08 07:11:52;;;;;;;2.55;0.85;;;;;;;;;;4984215;28;20034;-81
2023/05/08 07:14:18;;;;;;;2.25;1.13;;;;;;;;;;4981132;28;20417;-82
2023/05/08 07:16:44;;;;;;;3.20;1.13;;;;;;;;;;4984152;28;20042;-79
2023/05/08 07:19:10;;;;;;;2.30;0.90;;;;;;;;;;4983396;28;20089;-84
2023/05/08 07:21:37;;;;;;;1.02;0.70;;;;;;;;;;4979656;28;20085;-80
2023/05/08 07:24:03;;;;;;;1.33;0.85;;;;;;;;;;4986818;28;20026;-78
2023/05/08 07:26:29;;;;;;;1.13;0.80;;;;;;;;;;4984878;28;20671;-79
2023/05/08 07:28:55;;;;;;;1.25;0.80;;;;;;;;;;4969944;28;20033;-78
2023/05/08 07:31:21;;;;;;;0.77;0.77;;;;;;;;;;4985557;28;20036;-79
2023/05/08 07:33:47;;;;;;;2.50;1.00;;;;;;;;;;4988175;28;20022;-77
2023/05/08 07:36:13;;;;;;;0.90;0.80;;;;;;;;;;4986031;28;20541;-79
2023/05/08 07:38:42;;;;;;;1.67;1.10;;;;;;;;;;4984000;28;20038;-83
2023/05/08 07:41:08;;;;;;;4.40;0.80;;;;;;;;;;4977894;28;20121;-78
2023/05/08 07:43:35;;;;;;;1.08;0.50;;;;;;;;;;4983157;28;20030;-75
2023/05/08 07:46:02;;;;;;;0.90;0.80;;;;;;;;;;4982420;28;20081;-75
2023/05/08 07:48:28;;;;;;;1.50;1.00;;;;;;;;;;4987856;28;20022;-80
2023/05/08 07:50:54;;;;;;;0.73;0.73;;;;;;;;;;4986431;28;20088;-81
2023/05/08 07:53:19;;;;;;;1.17;1.05;;;;;;;;;;4985903;28;20030;-80
2023/05/08 07:55:46;;;;;;;2.28;1.20;;;;;;;;;;4985166;28;20034;-78
2023/05/08 07:58:12;;;;;;;1.50;1.05;;;;;;;;;;4987883;28;20027;-78
2023/05/08 08:00:39;;;;;;;2.53;0.95;;;;;;;;;;4988545;28;20099;-77
2023/05/08 08:03:05;;;;;;;3.88;1.30;;;;;;;;;;4983772;28;20036;-77
2023/05/08 08:05:31;;;;;;;1.33;0.90;;;;;;;;;;4987271;28;20061;-78
2023/05/08 08:07:57;;;;;;;1.98;1.20;;;;;;;;;;4987472;28;20022;-76
2023/05/08 08:10:23;;;;;;;1.58;0.77;;;;;;;;;;4987783;28;20026;-76
2023/05/08 08:12:49;;;;;;;1.20;0.80;;;;;;;;;;4986528;28;20389;-76
2023/05/08 08:15:15;;;;;;;1.83;1.00;;;;;;;;;;4984429;28;20030;-77
2023/05/08 08:17:41;;;;;;;1.80;1.00;;;;;;;;;;4985285;28;20045;-77
2023/05/08 08:20:08;;;;;;;5.15;0.88;;;;;;;;;;4981891;28;20501;-85
2023/05/08 08:22:35;;;;;;;2.70;1.27;;;;;;;;;;4986473;28;20045;-83
2023/05/08 08:25:01;;;;;;;1.13;0.90;;;;;;;;;;4966523;28;20745;-83
2023/05/08 08:27:27;;;;;;;2.75;1.35;;;;;;;;;;4983210;28;20022;-83
2023/05/08 08:29:53;;;;;;;1.08;0.80;;;;;;;;;;4986775;28;20086;-83
2023/05/08 08:32:19;;;;;;;2.05;0.85;;;;;;;;;;4985743;28;20026;-83
2023/05/08 08:34:45;;;;;;;1.20;1.10;;;;;;;;;;4986077;28;20021;-83
2023/05/08 08:37:11;;;;;;;1.67;1.00;;;;;;;;;;4986659;28;20030;-84
2023/05/08 08:39:37;;;;;;;1.10;1.00;;;;;;;;;;4985403;28;20030;-82
2023/05/08 08:42:03;;;;;;;1.65;1.10;;;;;;;;;;4983999;28;20100;-84
2023/05/08 08:44:29;;;;;;;10.00;0.98;;;;;;;;;;4986000;28;20018;-84
2023/05/08 08:46:57;;;;;;;3.30;1.55;;;;;;;;;;4985041;28;20022;-84
2023/05/08 08:49:34;;;;;;;1.15;0.90;;;;;;;;;;4983388;28;20499;-75
2023/05/08 08:52:11;;;;;;;2.55;0.70;;;;;;;;;;4980129;28;20046;-76
2023/05/08 08:54:37;;;;;;;0.85;0.75;;;;;;;;;;4983827;28;20225;-76
2023/05/08 08:57:08;;;;;;;0.88;0.70;;;;;;;;;;4984622;28;20037;-76
2023/05/08 08:59:34;;;;;;;1.52;0.77;;;;;;;;;;4986884;28;20029;-77
2023/05/08 09:02:01;;;;;;;0.80;0.80;;;;;;;;;;4983498;28;20072;-76
2023/05/08 09:04:28;;;;;;;0.95;0.73;;;;;;;;;;4985698;28;20050;-76
2023/05/08 09:06:56;;;;;;;1.05;0.80;;;;;;;;;;4985946;28;20122;-77
2023/05/08 09:09:22;;;;;;;0.65;0.63;;;;;;;;;;4984244;28;20022;-76
2023/05/08 09:11:48;;;;;;;6.45;1.50;;;;;;;;;;4984616;28;20131;-76
2023/05/08 09:14:14;;;;;;;0.95;0.93;;;;;;;;;;4985210;28;20026;-76
2023/05/08 09:16:44;;;;;;;1.85;1.00;;;;;;;;;;4982432;28;20081;-77
2023/05/08 09:19:13;;;;;;;1.60;0.90;;;;;;;;;;4979061;28;20448;-78
2023/05/08 09:21:39;;;;;;;2.13;1.10;;;;;;;;;;4983187;28;20022;-76
2023/05/08 09:24:05;;;;;;;6.15;1.20;;;;;;;;;;4978951;28;20074;-77
2023/05/08 09:26:38;;;;;;;1.20;0.80;;;;;;;;;;4972242;28;20038;-77
2023/05/08 09:29:21;;;;;;;1.40;0.93;;;;;;;;;;4984615;28;20035;-77
2023/05/08 09:31:51;;;;;;;0.93;0.70;;;;;;;;;;4979434;28;20040;-75
2023/05/08 09:34:23;;;;;;;1.08;0.98;;;;;;;;;;4981032;28;20071;-75
2023/05/08 09:36:49;;;;;;;0.75;0.63;;;;;;;;;;4976210;28;20035;-76
2023/05/08 09:39:21;;;;;;;0.77;0.70;;;;;;;;;;4985342;28;20045;-76
2023/05/08 09:41:57;;;;;;;3.08;1.20;;;;;;;;;;4986466;28;20046;-76
2023/05/08 09:44:22;;;;;;;1.20;1.02;;;;;;;;;;4982663;28;20022;-75
2023/05/08 09:46:49;;;;;;;2.72;1.15;;;;;;;;;;4976180;28;20034;-75
2023/05/08 09:49:16;;;;;;;1.20;1.10;;;;;;;;;;4985542;28;20172;-75
2023/05/08 09:51:51;;;;;;;3.53;0.90;;;;;;;;;;4985757;28;20461;-75
2023/05/08 09:54:17;;;;;;;2.08;0.90;;;;;;;;;;4984440;28;20022;-74
2023/05/08 09:56:44;;;;;;;1.80;1.00;;;;;;;;;;4983286;28;20038;-75
2023/05/08 09:59:44;;;;;;;1.75;1.20;;;;;;;;;;4982616;28;20030;-77
2023/05/08 10:02:11;;;;;;;2.65;1.00;;;;;;;;;;4985864;28;20031;-75
2023/05/08 10:04:37;;;;;;;1.35;1.00;;;;;;;;;;4985025;28;20073;-75
2023/05/08 10:07:07;;;;;;;1.98;1.05;;;;;;;;;;4984815;28;20026;-75
2023/05/08 10:09:33;;;;;;;5.07;0.82;;;;;;;;;;4986043;28;20015;-75
2023/05/08 10:11:59;;;;;;;1.42;1.10;;;;;;;;;;4986596;28;20398;-75
2023/05/08 10:14:25;;;;;;;1.17;0.70;;;;;;;;;;4984341;28;20073;-75
2023/05/08 10:16:52;;;;;;;1.95;0.80;;;;;;;;;;4983615;28;20039;-77
2023/05/08 10:19:22;;;;;;;3.20;0.90;;;;;;;;;;4984397;28;20026;-76
2023/05/08 10:21:49;;;;;;;1.23;0.95;;;;;;;;;;4987143;28;20045;-76
2023/05/08 10:24:17;;;;;;;2.10;0.90;;;;;;;;;;4986431;28;20493;-75
2023/05/08 10:26:53;;;;;;;1.33;0.90;;;;;;;;;;4984986;28;20057;-75
2023/05/08 10:29:24;;;;;;;3.60;0.90;;;;;;;;;;4986081;28;20370;-75
2023/05/08 10:31:54;;;;;;;1.13;0.65;;;;;;;;;;4984812;28;21410;-75
2023/05/08 10:34:22;;;;;;;2.65;1.08;;;;;;;;;;4982594;28;20165;-76
2023/05/08 10:36:48;;;;;;;1.80;1.10;;;;;;;;;;4985218;28;20030;-76
2023/05/08 10:39:15;;;;;;;2.03;1.27;;;;;;;;;;4984145;28;20054;-76
2023/05/08 10:41:42;;;;;;;1.55;0.90;;;;;;;;;;4983452;28;20041;-76
2023/05/08 10:44:09;;;;;;;1.95;1.13;;;;;;;;;;4985128;28;20030;-75
2023/05/08 10:46:49;;;;;;;2.30;0.90;;;;;;;;;;4982995;28;20434;-75
2023/05/08 10:49:15;;;;;;;1.58;0.90;;;;;;;;;;4984841;28;20036;-76
2023/05/08 10:52:09;;;;;;;1.67;1.20;;;;;;;;;;4977074;28;20109;-76
2023/05/08 10:54:41;;;;;;;14.43;1.38;;;;;;;;;;4979444;28;20092;-76
2023/05/08 10:57:11;;;;;;;1.00;0.90;;;;;;;;;;4977000;28;20037;-76
2023/05/08 10:59:37;;;;;;;1.45;1.15;;;;;;;;;;4974517;28;20044;-75
2023/05/08 11:02:04;;;;;;;0.93;0.80;;;;;;;;;;4974125;28;20054;-75
2023/05/08 11:04:30;;;;;;;2.03;1.02;;;;;;;;;;4968232;28;20069;-76
2023/05/08 11:06:57;;;;;;;0.73;0.73;;;;;;;;;;4969443;28;20034;-76
2023/05/08 11:09:47;;;;;;;0.70;0.70;;;;;;;;;;4982645;28;20555;-76
2023/05/08 11:12:22;;;;;;;0.65;0.65;;;;;;;;;;4974350;28;20043;-76
2023/05/08 11:14:55;;;;;;;0.77;0.70;;;;;;;;;;4983969;28;20052;-76
2023/05/08 11:17:25;;;;;;;1.80;0.57;;;;;;;;;;4981890;28;20400;-77
2023/05/08 11:20:05;;;;;;;0.95;0.80;;;;;;;;;;4974009;28;20493;-75
2023/05/08 11:22:32;;;;;;;0.70;0.70;;;;;;;;;;4983197;28;20030;-77
2023/05/08 11:25:02;;;;;;;2.47;0.98;;;;;;;;;;4986427;28;20034;-82
2023/05/08 11:27:32;;;;;;;1.20;1.10;;;;;;;;;;4982631;28;20035;-82
2023/05/08 11:30:17;;;;;;;0.80;0.80;;;;;;;;;;4968141;28;20027;-83
2023/05/08 11:32:57;;;;;;;2.90;1.17;;;;;;;;;;4968370;28;20057;-82
2023/05/08 11:35:42;;;;;;;4.80;0.68;;;;;;;;;;4967385;28;20019;-81
2023/05/08 11:38:14;;;;;;;1.05;0.88;;;;;;;;;;4968487;28;20245;-82
2023/05/08 11:40:54;;;;;;;1.05;0.70;;;;;;;;;;4967297;28;20049;-83
2023/05/08 11:43:32;;;;;;;5.22;1.08;;;;;;;;;;4974511;28;20026;-83
2023/05/08 11:46:07;;;;;;;1.38;1.02;;;;;;;;;;4975550;28;20042;-82
2023/05/08 11:48:34;;;;;;;2.05;0.80;;;;;;;;;;4971675;28;20508;-83
2023/05/08 11:51:00;;;;;;;1.30;1.00;;;;;;;;;;4967415;28;20150;-82
2023/05/08 11:53:26;;;;;;;1.40;1.00;;;;;;;;;;4985591;28;20022;-82
2023/05/08 11:55:53;;;;;;;1.77;1.20;;;;;;;;;;4987216;28;20035;-82
2023/05/08 11:58:19;;;;;;;1.40;0.85;;;;;;;;;;4987451;28;20485;-82
2023/05/08 12:00:46;;;;;;;1.30;1.20;;;;;;;;;;4987030;28;20084;-82
2023/05/08 12:03:12;;;;;;;0.80;0.80;;;;;;;;;;4977479;28;20054;-83
2023/05/08 12:05:38;;;;;;;1.20;0.73;;;;;;;;;;4967821;28;20039;-84
2023/05/08 12:08:08;;;;;;;1.33;1.00;;;;;;;;;;4969642;28;20081;-83
2023/05/08 12:10:41;;;;;;;0.88;0.68;;;;;;;;;;4971314;28;20033;-83
2023/05/08 12:13:20;;;;;;;1.63;0.75;;;;;;;;;;4985531;28;20023;-84
2023/05/08 12:15:47;;;;;;;0.95;0.70;;;;;;;;;;4971141;28;20038;-84
2023/05/08 12:18:13;;;;;;;1.20;1.10;;;;;;;;;;4990490;28;20029;-84
2023/05/08 12:20:39;;;;;;;1.52;0.93;;;;;;;;;;4988611;28;20032;-84
2023/05/08 12:23:05;;;;;;;1.42;1.05;;;;;;;;;;4983282;28;20061;-83
2023/05/08 12:25:31;;;;;;;1.70;1.17;;;;;;;;;;4971055;28;20027;-84
2023/05/08 12:27:58;;;;;;;1.77;0.80;;;;;;;;;;4977652;28;20026;-83
2023/05/08 12:30:24;;;;;;;0.80;0.80;;;;;;;;;;4989754;28;20030;-83
2023/05/08 12:32:53;;;;;;;2.60;0.93;;;;;;;;;;4984457;28;20102;-83
2023/05/08 12:35:19;;;;;;;0.80;0.80;;;;;;;;;;4973090;28;20030;-84
2023/05/08 12:37:46;;;;;;;0.77;0.77;;;;;;;;;;4970854;28;20481;-84
2023/05/08 12:40:32;;;;;;;0.90;0.85;;;;;;;;;;4971134;28;20023;-84
2023/05/08 12:43:00;;;;;;;2.90;0.80;;;;;;;;;;4971258;28;20089;-84
2023/05/08 12:45:28;;;;;;;0.55;0.55;;;;;;;;;;4970811;28;20366;-85
2023/05/08 12:47:58;;;;;;;0.80;0.70;;;;;;;;;;4988153;28;20121;-84
2023/05/08 12:50:24;;;;;;;0.60;0.60;;;;;;;;;;4986023;28;20221;-83
2023/05/08 12:52:51;;;;;;;1.20;0.70;;;;;;;;;;4979081;28;20064;-84
2023/05/08 12:55:20;;;;;;;1.20;1.10;;;;;;;;;;4976492;28;20045;-83
2023/05/08 12:57:47;;;;;;;0.90;0.60;;;;;;;;;;4990347;28;20033;-84
2023/05/08 13:00:15;;;;;;;0.70;0.70;;;;;;;;;;4984611;28;20027;-83
2023/05/08 13:02:51;;;;;;;0.75;0.75;;;;;;;;;;4983365;28;20484;-82
2023/05/08 13:05:20;;;;;;;0.52;0.52;;;;;;;;;;4977956;28;20054;-84
2023/05/08 13:07:46;;;;;;;1.33;0.68;;;;;;;;;;4988758;28;20054;-84
2023/05/08 13:10:12;;;;;;;1.25;0.80;;;;;;;;;;4984311;28;20026;-83
2023/05/08 13:12:38;;;;;;;3.22;0.60;;;;;;;;;;4971461;28;20034;-79
2023/05/08 13:15:04;;;;;;;3.15;0.90;;;;;;;;;;4983449;28;20030;-80
2023/05/08 13:17:30;;;;;;;1.00;0.85;;;;;;;;;;4990620;28;20428;-81
2023/05/08 13:19:56;;;;;;;1.10;0.70;;;;;;;;;;4986899;28;20028;-81
2023/05/08 13:22:25;;;;;;;0.93;0.73;;;;;;;;;;4980889;28;20034;-80
2023/05/08 13:24:51;;;;;;;1.02;0.70;;;;;;;;;;4993676;28;20026;-82
2023/05/08 13:27:17;;;;;;;0.85;0.80;;;;;;;;;;4989688;28;20404;-80
2023/05/08 13:29:43;;;;;;;0.68;0.60;;;;;;;;;;4981213;28;20042;-79
2023/05/08 13:32:09;;;;;;;0.52;0.52;;;;;;;;;;4988056;28;20029;-80
2023/05/08 13:34:35;;;;;;;1.10;0.85;;;;;;;;;;4990113;28;20022;-81
2023/05/08 13:37:01;;;;;;;0.50;0.50;;;;;;;;;;4992468;28;20042;-80
2023/05/08 13:39:27;;;;;;;6.13;0.70;;;;;;;;;;4986232;28;20117;-79
2023/05/08 13:41:53;;;;;;;0.90;0.80;;;;;;;;;;4988899;28;20060;-85
2023/05/08 13:44:19;;;;;;;0.60;0.60;;;;;;;;;;4985557;28;20026;-80
2023/05/08 13:46:45;;;;;;;1.05;0.88;;;;;;;;;;4997036;28;20036;-82
2023/05/08 13:49:11;;;;;;;2.25;1.50;;;;;;;;;;4989947;28;20022;-84
2023/05/08 13:51:39;;;;;;;0.88;0.73;;;;;;;;;;4990488;28;20102;-86
2023/05/08 13:54:05;;;;;;;1.00;0.90;;;;;;;;;;4994142;28;20026;-76
2023/05/08 13:56:31;;;;;;;0.70;0.70;;;;;;;;;;5001328;28;20033;-84
2023/05/08 13:58:57;;;;;;;0.70;0.70;;;;;;;;;;4989383;28;20081;-83
2023/05/08 14:01:23;;;;;;;1.02;0.85;;;;;;;;;;4983486;28;20034;-77
2023/05/08 14:03:49;;;;;;;1.42;0.77;;;;;;;;;;4968919;28;20042;-80
2023/05/08 14:06:15;;;;;;;1.60;0.75;;;;;;;;;;4989980;28;20042;-83
2023/05/08 14:08:41;;;;;;;0.70;0.70;;;;;;;;;;4979599;28;20054;-77
2023/05/08 14:11:07;;;;;;;1.05;0.77;;;;;;;;;;4991296;28;20511;-78
2023/05/08 14:13:33;;;;;;;0.50;0.50;;;;;;;;;;4984574;28;20512;-79
2023/05/08 14:15:59;;;;;;;0.70;0.70;;;;;;;;;;4967149;28;20097;-79
2023/05/08 14:18:25;;;;;;;3.00;0.80;;;;;;;;;;4987457;28;20474;-80
2023/05/08 14:20:51;;;;;;;0.55;0.55;;;;;;;;;;4987221;28;20049;-82
2023/05/08 14:23:17;;;;;;;1.30;0.73;;;;;;;;;;4985117;28;20031;-80
2023/05/08 14:25:43;;;;;;;1.05;0.88;;;;;;;;;;4985039;28;20033;-78
2023/05/08 14:28:09;;;;;;;2.15;0.77;;;;;;;;;;4991773;28;20018;-78
2023/05/08 14:30:34;;;;;;;0.75;0.70;;;;;;;;;;4979122;28;20019;-79
2023/05/08 14:33:00;;;;;;;0.82;0.60;;;;;;;;;;4985648;28;20061;-80
2023/05/08 14:35:26;;;;;;;0.77;0.70;;;;;;;;;;4985812;28;20061;-81
2023/05/08 14:37:52;;;;;;;1.13;0.70;;;;;;;;;;4968211;28;20485;-80
2023/05/08 14:40:18;;;;;;;1.35;0.88;;;;;;;;;;4986091;28;20022;-80
2023/05/08 14:42:44;;;;;;;0.70;0.70;;;;;;;;;;4988448;28;20034;-80
2023/05/08 14:45:10;;;;;;;1.02;0.60;;;;;;;;;;4988058;28;20477;-80
2023/05/08 14:47:37;;;;;;;1.15;0.77;;;;;;;;;;4994904;28;20038;-81
2023/05/08 14:50:06;;;;;;;1.08;0.60;;;;;;;;;;4983727;28;20034;-81